createdAt,value
2018-01-15T00:00:58.366Z,1018.30
2018-01-15T00:01:58.995Z,1018.29
2018-01-15T00:02:58.356Z,1018.25
2018-01-15T00:03:58.762Z,1018.25
2018-01-15T00:04:58.109Z,1018.30
2018-01-15T00:05:58.855Z,1018.29
2018-01-15T00:06:58.345Z,1018.31
2018-01-15T00:07:59.005Z,1018.28
2018-01-15T00:08:58.624Z,1018.27
2018-01-15T00:09:58.066Z,1018.29
2018-01-15T00:10:58.763Z,1018.28
2018-01-15T00:11:59.177Z,1018.26
2018-01-15T00:13:19.814Z,1018.20
2018-01-15T00:14:20.811Z,1018.19
2018-01-15T00:15:41.408Z,1018.21
2018-01-15T00:16:41.528Z,1018.13
2018-01-15T00:17:42.312Z,1018.14
2018-01-15T00:19:03.285Z,1018.07
2018-01-15T00:20:04.083Z,1018.05
2018-01-15T00:21:03.877Z,1018.02
2018-01-15T00:22:04.383Z,1017.96
2018-01-15T00:23:03.630Z,1017.94
2018-01-15T00:24:05.001Z,1017.91
2018-01-15T00:25:03.706Z,1017.94
2018-01-15T00:26:04.241Z,1017.89
2018-01-15T00:27:03.488Z,1017.92
2018-01-15T00:28:04.169Z,1017.87
2018-01-15T00:29:03.735Z,1017.82
2018-01-15T00:30:05.186Z,1017.84
2018-01-15T00:31:03.873Z,1017.76
2018-01-15T00:32:04.102Z,1017.76
2018-01-15T00:33:03.877Z,1017.71
2018-01-15T00:34:05.684Z,1017.73
2018-01-15T00:35:04.457Z,1017.66
2018-01-15T00:36:03.828Z,1017.66
2018-01-15T00:37:04.042Z,1017.67
2018-01-15T00:38:03.872Z,1017.65
2018-01-15T00:39:03.674Z,1017.61
2018-01-15T00:40:04.018Z,1017.62
2018-01-15T00:41:04.323Z,1017.61
2018-01-15T00:42:03.904Z,1017.57
2018-01-15T00:43:04.357Z,1017.61
2018-01-15T00:44:27.352Z,1017.58
2018-01-15T00:45:49.290Z,1017.57
2018-01-15T00:46:49.982Z,1017.62
2018-01-15T00:47:49.979Z,1017.56
2018-01-15T00:48:49.193Z,1017.59
2018-01-15T00:49:49.528Z,1017.53
2018-01-15T00:50:49.255Z,1017.52
2018-01-15T00:52:11.260Z,1017.45
2018-01-15T00:53:11.877Z,1017.43
2018-01-15T00:54:11.278Z,1017.39
2018-01-15T00:55:11.832Z,1017.36
2018-01-15T00:56:11.090Z,1017.42
2018-01-15T00:57:11.535Z,1017.39
2018-01-15T00:58:11.854Z,1017.32
2018-01-15T00:59:11.440Z,1017.33
2018-01-15T01:00:11.663Z,1017.31
2018-01-15T01:01:11.893Z,1017.33
2018-01-15T01:02:11.086Z,1017.32
2018-01-15T01:03:11.433Z,1017.35
2018-01-15T01:04:11.559Z,1017.34
2018-01-15T01:05:32.744Z,1017.36
2018-01-15T01:06:33.449Z,1017.40
2018-01-15T01:07:54.941Z,1017.33
2018-01-15T01:08:54.544Z,1017.37
2018-01-15T01:09:54.685Z,1017.35
2018-01-15T01:10:54.415Z,1017.30
2018-01-15T01:11:54.864Z,1017.34
2018-01-15T01:12:54.230Z,1017.33
2018-01-15T01:13:54.548Z,1017.25
2018-01-15T01:14:54.354Z,1017.31
2018-01-15T01:15:54.662Z,1017.30
2018-01-15T01:16:53.989Z,1017.26
2018-01-15T01:17:54.478Z,1017.30
2018-01-15T01:18:54.349Z,1017.30
2018-01-15T01:19:55.133Z,1017.26
2018-01-15T01:20:54.649Z,1017.24
2018-01-15T01:21:54.311Z,1017.24
2018-01-15T01:22:54.476Z,1017.27
2018-01-15T01:23:54.850Z,1017.29
2018-01-15T01:24:54.073Z,1017.30
2018-01-15T01:25:54.200Z,1017.26
2018-01-15T01:26:54.814Z,1017.30
2018-01-15T01:27:54.272Z,1017.27
2018-01-15T01:28:54.455Z,1017.32
2018-01-15T01:29:54.787Z,1017.30
2018-01-15T01:30:54.694Z,1017.29
2018-01-15T01:31:55.187Z,1017.26
2018-01-15T01:32:54.427Z,1017.29
2018-01-15T01:33:55.156Z,1017.26
2018-01-15T01:34:54.390Z,1017.26
2018-01-15T01:35:54.754Z,1017.31
2018-01-15T01:36:54.632Z,1017.28
2018-01-15T01:37:54.704Z,1017.25
2018-01-15T01:38:54.082Z,1017.26
2018-01-15T01:39:54.817Z,1017.26
2018-01-15T01:40:54.111Z,1017.24
2018-01-15T01:41:54.703Z,1017.24
2018-01-15T01:42:54.427Z,1017.17
2018-01-15T01:43:54.794Z,1017.14
2018-01-15T01:44:54.051Z,1017.18
2018-01-15T01:45:54.393Z,1017.13
2018-01-15T01:46:55.105Z,1017.09
2018-01-15T01:47:54.249Z,1017.08
2018-01-15T01:48:54.980Z,1017.02
2018-01-15T01:49:54.550Z,1017.03
2018-01-15T01:50:54.249Z,1016.95
2018-01-15T01:51:54.752Z,1017.02
2018-01-15T01:52:54.355Z,1017.01
2018-01-15T01:53:55.220Z,1016.91
2018-01-15T01:54:54.867Z,1016.95
2018-01-15T01:55:54.470Z,1016.92
2018-01-15T01:56:53.825Z,1016.87
2018-01-15T01:57:54.533Z,1016.88
2018-01-15T01:58:54.364Z,1016.83
2018-01-15T01:59:54.899Z,1016.76
2018-01-15T02:00:54.357Z,1016.73
2018-01-15T02:01:54.987Z,1016.74
2018-01-15T02:02:54.262Z,1016.76
2018-01-15T02:03:54.811Z,1016.73
2018-01-15T02:04:54.245Z,1016.69
2018-01-15T02:05:54.597Z,1016.69
2018-01-15T02:06:53.776Z,1016.74
2018-01-15T02:07:54.367Z,1016.72
2018-01-15T02:08:54.686Z,1016.72
2018-01-15T02:09:54.116Z,1016.69
2018-01-15T02:10:54.417Z,1016.75
2018-01-15T02:11:54.989Z,1016.75
2018-01-15T02:12:54.746Z,1016.71
2018-01-15T02:13:54.260Z,1016.71
2018-01-15T02:14:54.704Z,1016.62
2018-01-15T02:15:54.235Z,1016.62
2018-01-15T02:16:54.806Z,1016.54
2018-01-15T02:17:54.167Z,1016.56
2018-01-15T02:18:54.787Z,1016.57
2018-01-15T02:19:54.554Z,1016.56
2018-01-15T02:20:54.181Z,1016.54
2018-01-15T02:21:54.412Z,1016.54
2018-01-15T02:22:54.880Z,1016.53
2018-01-15T02:23:54.179Z,1016.52
2018-01-15T02:24:55.197Z,1016.49
2018-01-15T02:25:54.294Z,1016.44
2018-01-15T02:26:54.668Z,1016.48
2018-01-15T02:28:38.355Z,1016.48
2018-01-15T02:29:39.060Z,1016.50
2018-01-15T02:30:39.169Z,1016.46
2018-01-15T02:31:38.807Z,1016.44
2018-01-15T02:32:39.238Z,1016.42
2018-01-15T02:33:38.935Z,1016.39
2018-01-15T02:34:38.981Z,1016.35
2018-01-15T02:35:39.580Z,1016.34
2018-01-15T02:36:39.024Z,1016.36
2018-01-15T02:37:38.641Z,1016.36
2018-01-15T02:38:38.678Z,1016.32
2018-01-15T02:39:38.890Z,1016.32
2018-01-15T02:41:00.458Z,1016.33
2018-01-15T02:42:01.005Z,1016.33
2018-01-15T02:43:01.647Z,1016.29
2018-01-15T02:44:21.980Z,1016.27
2018-01-15T02:45:22.524Z,1016.22
2018-01-15T02:46:22.165Z,1016.23
2018-01-15T02:47:22.640Z,1016.23
2018-01-15T02:48:21.739Z,1016.21
2018-01-15T02:49:21.946Z,1016.23
2018-01-15T02:50:22.286Z,1016.21
2018-01-15T02:51:22.231Z,1016.17
2018-01-15T02:52:22.351Z,1016.20
2018-01-15T02:53:22.423Z,1016.12
2018-01-15T02:54:22.184Z,1016.11
2018-01-15T02:55:22.700Z,1016.08
2018-01-15T02:56:22.355Z,1016.01
2018-01-15T02:57:22.406Z,1016.02
2018-01-15T02:58:22.985Z,1015.99
2018-01-15T02:59:22.338Z,1015.97
2018-01-15T03:00:21.643Z,1015.94
2018-01-15T03:01:42.938Z,1015.92
2018-01-15T03:03:04.541Z,1015.90
2018-01-15T03:04:04.908Z,1015.88
2018-01-15T03:05:05.433Z,1015.87
2018-01-15T03:06:05.655Z,1015.86
2018-01-15T03:07:04.851Z,1015.83
2018-01-15T03:08:05.262Z,1015.80
2018-01-15T03:09:05.517Z,1015.83
2018-01-15T03:10:26.044Z,1015.80
2018-01-15T03:11:26.083Z,1015.84
2018-01-15T03:12:26.384Z,1015.82
2018-01-15T03:13:26.762Z,1015.77
2018-01-15T03:14:26.319Z,1015.82
2018-01-15T03:15:27.008Z,1015.83
2018-01-15T03:16:26.328Z,1015.79
2018-01-15T03:17:26.726Z,1015.74
2018-01-15T03:18:26.223Z,1015.72
2018-01-15T03:19:26.744Z,1015.69
2018-01-15T03:20:26.355Z,1015.63
2018-01-15T03:21:26.461Z,1015.60
2018-01-15T03:22:27.210Z,1015.60
2018-01-15T03:23:26.715Z,1015.59
2018-01-15T03:24:26.169Z,1015.51
2018-01-15T03:25:26.276Z,1015.49
2018-01-15T03:26:26.253Z,1015.49
2018-01-15T03:27:26.778Z,1015.42
2018-01-15T03:28:26.141Z,1015.44
2018-01-15T03:29:26.633Z,1015.37
2018-01-15T03:30:27.162Z,1015.41
2018-01-15T03:31:26.553Z,1015.40
2018-01-15T03:32:26.816Z,1015.36
2018-01-15T03:33:26.538Z,1015.34
2018-01-15T03:34:26.102Z,1015.34
2018-01-15T03:35:26.332Z,1015.34
2018-01-15T03:36:26.446Z,1015.36
2018-01-15T03:37:26.368Z,1015.26
2018-01-15T03:38:26.841Z,1015.34
2018-01-15T03:39:26.322Z,1015.32
2018-01-15T03:40:26.356Z,1015.23
2018-01-15T03:41:26.524Z,1015.20
2018-01-15T03:42:26.584Z,1015.20
2018-01-15T03:43:26.808Z,1015.18
2018-01-15T03:44:26.448Z,1015.15
2018-01-15T03:45:26.851Z,1015.10
2018-01-15T03:46:26.287Z,1015.13
2018-01-15T03:47:26.640Z,1015.07
2018-01-15T03:48:27.763Z,1015.01
2018-01-15T03:49:26.028Z,1015.03
2018-01-15T03:50:26.162Z,1015.02
2018-01-15T03:51:26.318Z,1014.98
2018-01-15T03:52:26.886Z,1014.95
2018-01-15T03:53:26.017Z,1014.95
2018-01-15T03:54:26.257Z,1014.91
2018-01-15T03:55:26.564Z,1014.97
2018-01-15T03:56:26.726Z,1014.95
2018-01-15T03:57:47.279Z,1014.95
2018-01-15T03:58:47.354Z,1014.89
2018-01-15T03:59:48.079Z,1014.91
2018-01-15T04:00:48.217Z,1014.85
2018-01-15T04:01:47.810Z,1014.83
2018-01-15T04:02:48.362Z,1014.82
2018-01-15T04:03:47.805Z,1014.81
2018-01-15T04:04:48.559Z,1014.80
2018-01-15T04:05:47.978Z,1014.84
2018-01-15T04:06:48.538Z,1014.77
2018-01-15T04:07:47.646Z,1014.76
2018-01-15T04:08:48.007Z,1014.76
2018-01-15T04:09:48.064Z,1014.76
2018-01-15T04:10:48.549Z,1014.76
2018-01-15T04:11:48.021Z,1014.76
2018-01-15T04:12:48.820Z,1014.71
2018-01-15T04:13:48.460Z,1014.65
2018-01-15T04:14:48.262Z,1014.68
2018-01-15T04:15:47.565Z,1014.69
2018-01-15T04:16:47.905Z,1014.64
2018-01-15T04:17:48.377Z,1014.63
2018-01-15T04:18:47.800Z,1014.56
2018-01-15T04:20:09.597Z,1014.55
2018-01-15T04:21:09.989Z,1014.55
2018-01-15T04:22:10.598Z,1014.53
2018-01-15T04:23:09.949Z,1014.53
2018-01-15T04:24:10.063Z,1014.49
2018-01-15T04:25:10.859Z,1014.50
2018-01-15T04:26:10.302Z,1014.45
2018-01-15T04:27:09.539Z,1014.50
2018-01-15T04:28:09.854Z,1014.36
2018-01-15T04:29:10.467Z,1014.25
2018-01-15T04:30:09.742Z,1014.34
2018-01-15T04:31:10.543Z,1014.34
2018-01-15T04:32:10.226Z,1014.35
2018-01-15T04:33:09.921Z,1014.25
2018-01-15T04:34:10.187Z,1014.27
2018-01-15T04:35:30.307Z,1014.26
2018-01-15T04:36:30.538Z,1014.22
2018-01-15T04:37:52.326Z,1014.11
2018-01-15T04:38:52.983Z,1014.13
2018-01-15T04:39:52.293Z,1014.09
2018-01-15T04:40:52.612Z,1014.04
2018-01-15T04:41:53.223Z,1014.00
2018-01-15T04:42:52.961Z,1014.03
2018-01-15T04:43:53.727Z,1014.01
2018-01-15T04:44:53.104Z,1013.96
2018-01-15T04:45:52.435Z,1014.02
2018-01-15T04:46:52.530Z,1013.97
2018-01-15T04:47:52.991Z,1013.87
2018-01-15T04:49:13.784Z,1013.84
2018-01-15T04:50:14.308Z,1013.87
2018-01-15T04:51:14.610Z,1013.87
2018-01-15T04:52:14.056Z,1013.82
2018-01-15T04:53:14.706Z,1013.80
2018-01-15T04:54:14.022Z,1013.82
2018-01-15T04:55:14.765Z,1013.78
2018-01-15T04:56:13.842Z,1013.80
2018-01-15T04:57:14.584Z,1013.83
2018-01-15T04:58:14.022Z,1013.71
2018-01-15T04:59:37.530Z,1013.71
2018-01-15T05:00:38.310Z,1013.60
2018-01-15T05:01:38.539Z,1013.63
2018-01-15T05:02:37.896Z,1013.56
2018-01-15T05:03:38.443Z,1013.66
2018-01-15T05:04:37.920Z,1013.65
2018-01-15T05:05:38.646Z,1013.67
2018-01-15T05:06:37.787Z,1013.62
2018-01-15T05:07:37.991Z,1013.58
2018-01-15T05:08:38.865Z,1013.61
2018-01-15T05:09:38.005Z,1013.62
2018-01-15T05:10:39.337Z,1013.64
2018-01-15T05:11:38.673Z,1013.59
2018-01-15T05:12:38.006Z,1013.51
2018-01-15T05:13:38.497Z,1013.50
2018-01-15T05:14:38.662Z,1013.54
2018-01-15T05:15:38.373Z,1013.53
2018-01-15T05:16:38.560Z,1013.45
2018-01-15T05:17:37.971Z,1013.47
2018-01-15T05:18:38.722Z,1013.45
2018-01-15T05:19:38.368Z,1013.43
2018-01-15T05:20:39.139Z,1013.44
2018-01-15T05:21:59.447Z,1013.46
2018-01-15T05:22:59.832Z,1013.43
2018-01-15T05:24:00.118Z,1013.40
2018-01-15T05:25:00.707Z,1013.39
2018-01-15T05:25:59.943Z,1013.35
2018-01-15T05:27:00.135Z,1013.41
2018-01-15T05:28:00.726Z,1013.33
2018-01-15T05:29:00.903Z,1013.42
2018-01-15T05:30:00.250Z,1013.32
2018-01-15T05:31:00.884Z,1013.29
2018-01-15T05:32:21.698Z,1013.23
2018-01-15T05:33:21.936Z,1013.23
2018-01-15T05:34:22.264Z,1013.25
2018-01-15T05:35:43.391Z,1013.27
2018-01-15T05:36:44.086Z,1013.25
2018-01-15T05:37:44.613Z,1013.24
2018-01-15T05:38:43.834Z,1013.22
2018-01-15T05:39:44.059Z,1013.22
2018-01-15T05:40:43.861Z,1013.24
2018-01-15T05:41:44.214Z,1013.17
2018-01-15T05:42:43.475Z,1013.13
2018-01-15T05:43:45.471Z,1013.09
2018-01-15T05:44:43.560Z,1013.12
2018-01-15T05:45:43.779Z,1013.07
2018-01-15T05:46:43.971Z,1013.02
2018-01-15T05:47:44.567Z,1013.03
2018-01-15T05:48:44.340Z,1013.02
2018-01-15T05:49:44.168Z,1013.00
2018-01-15T05:50:43.418Z,1012.99
2018-01-15T05:51:44.170Z,1012.93
2018-01-15T05:52:43.879Z,1013.02
2018-01-15T05:53:44.855Z,1012.95
2018-01-15T05:54:43.969Z,1012.94
2018-01-15T05:55:44.324Z,1012.91
2018-01-15T05:56:45.076Z,1012.91
2018-01-15T05:57:44.361Z,1012.91
2018-01-15T05:58:43.689Z,1012.94
2018-01-15T05:59:44.047Z,1012.91
2018-01-15T06:00:44.739Z,1012.85
2018-01-15T06:01:46.911Z,1012.86
2018-01-15T06:02:43.879Z,1012.87
2018-01-15T06:03:44.398Z,1012.77
2018-01-15T06:04:43.508Z,1012.80
2018-01-15T06:05:43.823Z,1012.73
2018-01-15T06:06:45.411Z,1012.66
2018-01-15T06:07:43.569Z,1012.64
2018-01-15T06:08:44.291Z,1012.65
2018-01-15T06:09:43.452Z,1012.60
2018-01-15T06:10:44.138Z,1012.65
2018-01-15T06:11:44.061Z,1012.60
2018-01-15T06:12:43.454Z,1012.62
2018-01-15T06:13:43.675Z,1012.56
2018-01-15T06:14:44.206Z,1012.59
2018-01-15T06:15:43.701Z,1012.57
2018-01-15T06:17:05.508Z,1012.56
2018-01-15T06:18:06.048Z,1012.59
2018-01-15T06:19:06.587Z,1012.54
2018-01-15T06:20:06.534Z,1012.53
2018-01-15T06:21:05.777Z,1012.53
2018-01-15T06:22:05.968Z,1012.49
2018-01-15T06:23:06.377Z,1012.47
2018-01-15T06:24:26.595Z,1012.42
2018-01-15T06:25:27.175Z,1012.42
2018-01-15T06:26:26.586Z,1012.45
2018-01-15T06:27:27.016Z,1012.39
2018-01-15T06:28:27.535Z,1012.34
2018-01-15T06:29:26.859Z,1012.32
2018-01-15T06:30:27.208Z,1012.36
2018-01-15T06:31:26.629Z,1012.31
2018-01-15T06:32:26.853Z,1012.26
2018-01-15T06:33:27.052Z,1012.27
2018-01-15T06:34:27.603Z,1012.30
2018-01-15T06:35:26.648Z,1012.23
2018-01-15T06:36:27.030Z,1012.20
2018-01-15T06:37:27.331Z,1012.22
2018-01-15T06:38:26.756Z,1012.15
2018-01-15T06:39:27.387Z,1012.18
2018-01-15T06:40:26.638Z,1012.20
2018-01-15T06:41:27.465Z,1012.18
2018-01-15T06:42:26.697Z,1012.10
2018-01-15T06:43:26.879Z,1012.07
2018-01-15T06:44:27.733Z,1012.10
2018-01-15T06:45:28.865Z,1012.04
2018-01-15T06:46:29.835Z,1011.98
2018-01-15T06:47:28.122Z,1012.00
2018-01-15T06:48:27.191Z,1011.99
2018-01-15T06:49:26.905Z,1011.96
2018-01-15T06:50:27.530Z,1011.86
2018-01-15T06:51:26.925Z,1011.81
2018-01-15T06:52:27.602Z,1011.84
2018-01-15T06:53:26.779Z,1011.82
2018-01-15T06:54:27.303Z,1011.85
2018-01-15T06:55:26.313Z,1011.81
2018-01-15T06:56:26.596Z,1011.74
2018-01-15T06:57:26.978Z,1011.74
2018-01-15T06:58:27.121Z,1011.76
2018-01-15T06:59:26.785Z,1011.73
2018-01-15T07:00:27.044Z,1011.70
2018-01-15T07:01:48.647Z,1011.73
2018-01-15T07:02:49.201Z,1011.73
2018-01-15T07:03:49.854Z,1011.76
2018-01-15T07:04:49.664Z,1011.75
2018-01-15T07:05:49.236Z,1011.72
2018-01-15T07:06:49.459Z,1011.69
2018-01-15T07:07:48.656Z,1011.71
2018-01-15T07:08:48.858Z,1011.74
2018-01-15T07:09:49.213Z,1011.74
2018-01-15T07:10:51.094Z,1011.71
2018-01-15T07:11:49.401Z,1011.73
2018-01-15T07:12:49.480Z,1011.67
2018-01-15T07:13:48.937Z,1011.68
2018-01-15T07:14:49.416Z,1011.68
2018-01-15T07:15:48.838Z,1011.71
2018-01-15T07:16:49.748Z,1011.68
2018-01-15T07:17:49.393Z,1011.68
2018-01-15T07:18:49.033Z,1011.69
2018-01-15T07:19:49.523Z,1011.71
2018-01-15T07:21:09.919Z,1011.74
2018-01-15T07:22:10.653Z,1011.70
2018-01-15T07:23:11.855Z,1011.68
2018-01-15T07:24:10.456Z,1011.86
2018-01-15T07:25:11.221Z,1011.64
2018-01-15T07:26:52.960Z,1011.70
2018-01-15T07:27:53.209Z,1011.63
2018-01-15T07:28:53.602Z,1011.61
2018-01-15T07:29:53.514Z,1011.68
2018-01-15T07:30:54.262Z,1011.66
2018-01-15T07:31:53.547Z,1011.59
2018-01-15T07:32:53.712Z,1011.52
2018-01-15T07:33:52.874Z,1011.63
2018-01-15T07:34:53.552Z,1011.66
2018-01-15T07:35:53.975Z,1011.57
2018-01-15T07:36:53.177Z,1011.55
2018-01-15T07:37:54.626Z,1011.54
2018-01-15T07:38:54.347Z,1011.53
2018-01-15T07:39:54.279Z,1011.54
2018-01-15T07:41:15.833Z,1011.57
2018-01-15T07:42:37.414Z,1011.48
2018-01-15T07:43:37.877Z,1011.43
2018-01-15T07:44:38.489Z,1011.47
2018-01-15T07:45:38.132Z,1011.47
2018-01-15T07:46:38.805Z,1011.45
2018-01-15T07:47:38.275Z,1011.42
2018-01-15T07:48:37.839Z,1011.40
2018-01-15T07:49:38.559Z,1011.46
2018-01-15T07:50:38.102Z,1011.39
2018-01-15T07:51:38.789Z,1011.28
2018-01-15T07:52:38.929Z,1011.25
2018-01-15T07:53:38.179Z,1011.23
2018-01-15T07:54:39.946Z,1011.19
2018-01-15T07:55:38.669Z,1011.19
2018-01-15T07:56:38.230Z,1011.19
2018-01-15T07:57:40.657Z,1011.12
2018-01-15T07:58:38.723Z,1011.09
2018-01-15T07:59:38.116Z,1011.18
2018-01-15T08:00:38.069Z,1011.11
2018-01-15T08:01:38.290Z,1011.06
2018-01-15T08:02:37.740Z,1011.04
2018-01-15T08:03:38.778Z,1011.02
2018-01-15T08:04:38.472Z,1010.94
2018-01-15T08:05:38.292Z,1011.02
2018-01-15T08:06:37.910Z,1010.93
2018-01-15T08:07:38.938Z,1010.92
2018-01-15T08:08:38.378Z,1010.87
2018-01-15T08:09:37.822Z,1010.89
2018-01-15T08:10:38.388Z,1010.81
2018-01-15T08:11:38.011Z,1010.84
2018-01-15T08:12:38.663Z,1010.81
2018-01-15T08:13:38.165Z,1010.77
2018-01-15T08:14:38.752Z,1010.79
2018-01-15T08:15:37.931Z,1010.76
2018-01-15T08:16:38.578Z,1010.77
2018-01-15T08:17:38.564Z,1010.83
2018-01-15T08:18:37.948Z,1010.75
2018-01-15T08:19:38.195Z,1010.76
2018-01-15T08:20:37.567Z,1010.79
2018-01-15T08:21:37.744Z,1010.73
2018-01-15T08:22:38.026Z,1010.71
2018-01-15T08:23:38.418Z,1010.68
2018-01-15T08:24:38.173Z,1010.73
2018-01-15T08:25:37.712Z,1010.72
2018-01-15T08:26:38.384Z,1010.70
2018-01-15T08:27:38.219Z,1010.71
2018-01-15T08:28:38.021Z,1010.60
2018-01-15T08:29:38.432Z,1010.61
2018-01-15T08:30:37.839Z,1010.59
2018-01-15T08:31:38.633Z,1010.58
2018-01-15T08:32:38.138Z,1010.58
2018-01-15T08:33:37.505Z,1010.61
2018-01-15T08:34:38.486Z,1010.53
2018-01-15T08:35:38.313Z,1010.48
2018-01-15T08:36:37.557Z,1010.49
2018-01-15T08:37:38.476Z,1010.43
2018-01-15T08:38:38.306Z,1010.43
2018-01-15T08:39:37.958Z,1010.44
2018-01-15T08:40:38.370Z,1010.40
2018-01-15T08:41:38.079Z,1010.37
2018-01-15T08:42:38.675Z,1010.34
2018-01-15T08:43:38.268Z,1010.32
2018-01-15T08:44:37.604Z,1010.30
2018-01-15T08:45:38.067Z,1010.25
2018-01-15T08:47:21.677Z,1010.27
2018-01-15T08:48:22.394Z,1010.24
2018-01-15T08:49:22.242Z,1010.19
2018-01-15T08:50:22.646Z,1010.15
2018-01-15T08:51:22.523Z,1010.19
2018-01-15T08:52:22.162Z,1010.17
2018-01-15T08:53:22.630Z,1010.09
2018-01-15T08:54:22.101Z,1010.05
2018-01-15T08:55:22.777Z,1010.13
2018-01-15T08:56:22.110Z,1010.07
2018-01-15T08:57:22.398Z,1010.02
2018-01-15T08:58:21.632Z,1010.04
2018-01-15T08:59:22.505Z,1010.07
2018-01-15T09:00:22.261Z,1010.00
2018-01-15T09:01:21.780Z,1010.09
2018-01-15T09:02:43.343Z,1010.01
2018-01-15T09:04:05.545Z,1009.83
2018-01-15T09:05:06.027Z,1010.02
2018-01-15T09:06:05.263Z,1009.93
2018-01-15T09:07:06.060Z,1009.93
2018-01-15T09:08:26.758Z,1009.86
2018-01-15T09:09:27.201Z,1009.84
2018-01-15T09:10:48.691Z,1009.86
2018-01-15T09:11:49.581Z,1009.83
2018-01-15T09:12:50.716Z,1009.85
2018-01-15T09:13:49.053Z,1009.82
2018-01-15T09:14:50.446Z,1009.73
2018-01-15T09:15:48.849Z,1009.68
2018-01-15T09:16:49.642Z,1009.70
2018-01-15T09:17:49.166Z,1009.72
2018-01-15T09:18:49.626Z,1009.69
2018-01-15T09:19:49.197Z,1009.66
2018-01-15T09:20:49.428Z,1009.64
2018-01-15T09:22:11.327Z,1009.56
2018-01-15T09:23:11.832Z,1009.51
2018-01-15T09:24:53.396Z,1009.42
2018-01-15T09:25:54.362Z,1009.43
2018-01-15T09:26:53.725Z,1009.44
2018-01-15T09:27:54.315Z,1009.32
2018-01-15T09:29:14.945Z,1009.26
2018-01-15T09:30:15.286Z,1009.29
2018-01-15T09:31:16.346Z,1009.21
2018-01-15T09:32:15.727Z,1009.24
2018-01-15T09:33:15.448Z,1009.22
2018-01-15T09:34:16.301Z,1009.24
2018-01-15T09:35:36.723Z,1009.14
2018-01-15T09:36:36.965Z,1009.23
2018-01-15T09:37:37.586Z,1009.24
2018-01-15T09:38:37.437Z,1009.14
2018-01-15T09:39:58.618Z,1009.11
2018-01-15T09:40:59.275Z,1009.00
2018-01-15T09:41:58.598Z,1009.04
2018-01-15T09:42:59.030Z,1009.18
2018-01-15T09:43:58.371Z,1008.97
2018-01-15T09:44:59.120Z,1008.98
2018-01-15T09:46:20.010Z,1009.15
2018-01-15T09:47:20.474Z,1009.02
2018-01-15T09:48:19.816Z,1009.03
2018-01-15T09:49:20.419Z,1009.00
2018-01-15T09:50:21.334Z,1008.97
2018-01-15T09:51:20.589Z,1009.06
2018-01-15T09:52:20.242Z,1008.98
2018-01-15T09:53:21.259Z,1008.89
2018-01-15T09:54:20.740Z,1008.93
2018-01-15T09:55:20.467Z,1008.95
2018-01-15T09:56:19.803Z,1008.94
2018-01-15T09:57:20.547Z,1008.95
2018-01-15T09:58:19.989Z,1008.98
2018-01-15T09:59:20.368Z,1008.90
2018-01-15T10:00:21.082Z,1009.02
2018-01-15T10:01:20.525Z,1008.92
2018-01-15T10:02:20.247Z,1008.93
2018-01-15T10:03:20.573Z,1008.79
2018-01-15T10:04:20.203Z,1008.87
2018-01-15T10:05:20.670Z,1008.65
2018-01-15T10:06:20.104Z,1008.71
2018-01-15T10:07:20.323Z,1008.75
2018-01-15T10:08:20.955Z,1008.73
2018-01-15T10:09:20.343Z,1008.64
2018-01-15T10:10:20.947Z,1008.65
2018-01-15T10:11:20.564Z,1008.41
2018-01-15T10:12:41.085Z,1008.60
2018-01-15T10:13:41.570Z,1008.47
2018-01-15T10:14:40.906Z,1008.53
2018-01-15T10:15:41.589Z,1008.49
2018-01-15T10:16:41.532Z,1008.47
2018-01-15T10:17:42.544Z,1008.46
2018-01-15T10:18:42.026Z,1008.53
2018-01-15T10:20:02.856Z,1008.45
2018-01-15T10:21:03.605Z,1008.49
2018-01-15T10:22:02.956Z,1008.46
2018-01-15T10:23:03.795Z,1008.51
2018-01-15T10:24:02.932Z,1008.50
2018-01-15T10:25:03.022Z,1008.43
2018-01-15T10:26:04.021Z,1008.32
2018-01-15T10:27:04.003Z,1008.32
2018-01-15T10:28:03.918Z,1008.37
2018-01-15T10:29:03.415Z,1008.39
2018-01-15T10:30:03.195Z,1008.41
2018-01-15T10:31:03.974Z,1008.31
2018-01-15T10:32:03.857Z,1008.27
2018-01-15T10:33:03.375Z,1008.29
2018-01-15T10:34:04.194Z,1008.27
2018-01-15T10:35:03.954Z,1008.23
2018-01-15T10:36:03.328Z,1008.13
2018-01-15T10:37:03.693Z,1008.21
2018-01-15T10:38:03.224Z,1008.18
2018-01-15T10:39:03.929Z,1008.07
2018-01-15T10:40:03.286Z,1008.14
2018-01-15T10:41:03.667Z,1008.11
2018-01-15T10:42:03.528Z,1008.09
2018-01-15T10:43:04.193Z,1008.08
2018-01-15T10:44:03.968Z,1008.14
2018-01-15T10:45:03.613Z,1008.09
2018-01-15T10:46:24.303Z,1007.95
2018-01-15T10:47:47.406Z,1007.95
2018-01-15T10:48:47.808Z,1007.91
2018-01-15T10:49:47.491Z,1007.89
2018-01-15T10:50:47.366Z,1007.84
2018-01-15T10:51:47.634Z,1007.79
2018-01-15T10:52:47.100Z,1007.81
2018-01-15T10:53:48.094Z,1007.71
2018-01-15T10:54:47.857Z,1007.81
2018-01-15T10:55:47.192Z,1007.75
2018-01-15T10:56:47.606Z,1007.76
2018-01-15T10:57:47.092Z,1007.68
2018-01-15T10:58:47.310Z,1007.69
2018-01-15T10:59:47.984Z,1007.65
2018-01-15T11:00:47.639Z,1007.66
2018-01-15T11:01:47.461Z,1007.58
2018-01-15T11:02:48.141Z,1007.47
2018-01-15T11:03:47.627Z,1007.51
2018-01-15T11:04:46.910Z,1007.48
2018-01-15T11:05:47.698Z,1007.38
2018-01-15T11:06:47.570Z,1007.46
2018-01-15T11:07:47.390Z,1007.43
2018-01-15T11:08:48.363Z,1007.39
2018-01-15T11:09:47.809Z,1007.37
2018-01-15T11:10:47.484Z,1007.38
2018-01-15T11:11:47.428Z,1007.24
2018-01-15T11:12:47.660Z,1007.25
2018-01-15T11:13:47.128Z,1007.25
2018-01-15T11:14:47.286Z,1007.20
2018-01-15T11:15:48.052Z,1007.17
2018-01-15T11:16:47.542Z,1007.13
2018-01-15T11:17:48.149Z,1007.16
2018-01-15T11:18:47.814Z,1007.14
2018-01-15T11:19:47.629Z,1007.04
2018-01-15T11:20:46.898Z,1007.03
2018-01-15T11:21:47.477Z,1007.02
2018-01-15T11:22:48.277Z,1007.01
2018-01-15T11:23:48.525Z,1006.93
2018-01-15T11:24:47.597Z,1006.90
2018-01-15T11:25:47.124Z,1006.93
2018-01-15T11:26:47.658Z,1006.84
2018-01-15T11:27:47.148Z,1006.82
2018-01-15T11:28:47.702Z,1006.80
2018-01-15T11:29:46.897Z,1006.75
2018-01-15T11:30:47.139Z,1006.74
2018-01-15T11:31:47.833Z,1006.72
2018-01-15T11:32:47.530Z,1006.63
2018-01-15T11:33:47.222Z,1006.57
2018-01-15T11:34:47.964Z,1006.57
2018-01-15T11:35:47.291Z,1006.58
2018-01-15T11:36:47.696Z,1006.51
2018-01-15T11:38:08.503Z,1006.51
2018-01-15T11:39:09.419Z,1006.47
2018-01-15T11:40:08.892Z,1006.46
2018-01-15T11:41:09.366Z,1006.33
2018-01-15T11:42:08.834Z,1006.35
2018-01-15T11:43:09.146Z,1006.32
2018-01-15T11:44:08.467Z,1006.34
2018-01-15T11:45:08.773Z,1006.27
2018-01-15T11:46:30.618Z,1006.17
2018-01-15T11:47:30.978Z,1006.16
2018-01-15T11:48:30.211Z,1006.15
2018-01-15T11:49:31.036Z,1006.13
2018-01-15T11:50:52.294Z,1006.11
2018-01-15T11:51:52.691Z,1006.00
2018-01-15T11:52:52.247Z,1006.00
2018-01-15T11:53:52.619Z,1005.96
2018-01-15T11:54:52.481Z,1005.98
2018-01-15T11:55:52.644Z,1005.88
2018-01-15T11:56:51.835Z,1005.80
2018-01-15T11:58:13.634Z,1005.73
2018-01-15T11:59:14.839Z,1005.67
2018-01-15T12:00:14.462Z,1005.61
2018-01-15T12:01:13.903Z,1005.64
2018-01-15T12:02:14.584Z,1005.58
2018-01-15T12:03:14.154Z,1005.56
2018-01-15T12:04:15.092Z,1005.62
2018-01-15T12:05:14.803Z,1005.54
2018-01-15T12:06:14.034Z,1005.46
2018-01-15T12:07:14.631Z,1005.48
2018-01-15T12:08:14.423Z,1005.48
2018-01-15T12:09:14.843Z,1005.39
2018-01-15T12:10:14.761Z,1005.30
2018-01-15T12:11:14.521Z,1005.31
2018-01-15T12:12:13.980Z,1005.29
2018-01-15T12:13:14.684Z,1005.26
2018-01-15T12:14:14.252Z,1005.24
2018-01-15T12:15:14.692Z,1005.17
2018-01-15T12:16:13.869Z,1005.16
2018-01-15T12:17:14.181Z,1005.12
2018-01-15T12:18:14.658Z,1005.05
2018-01-15T12:19:13.889Z,1005.05
2018-01-15T12:20:14.295Z,1005.08
2018-01-15T12:21:14.380Z,1004.98
2018-01-15T12:22:14.176Z,1004.95
2018-01-15T12:23:13.647Z,1004.92
2018-01-15T12:24:14.283Z,1004.85
2018-01-15T12:25:13.565Z,1004.83